sensor_id;sensor_type;location;lat;lon;timestamp;pressure;altitude;pressure_sealevel;temperature;humidity
64362;BME280;50685;53.346;-6.296;2023-05-09T06:03:29;100998.09;;;11.31;97.55
64362;BME280;50685;53.346;-6.296;2023-05-09T06:05:55;100982.19;;;11.28;97.68
64362;BME280;50685;53.346;-6.296;2023-05-09T06:08:20;100979.59;;;11.23;97.33
64362;BME280;50685;53.346;-6.296;2023-05-09T06:10:46;100970.72;;;11.27;97.29
64362;BME280;50685;53.346;-6.296;2023-05-09T06:13:11;101009.41;;;11.47;96.84
64362;BME280;50685;53.346;-6.296;2023-05-09T06:15:37;100999.63;;;11.50;97.11
64362;BME280;50685;53.346;-6.296;2023-05-09T06:18:02;100958.34;;;11.24;96.69
64362;BME280;50685;53.346;-6.296;2023-05-09T06:20:44;100952.97;;;11.29;97.04
64362;BME280;50685;53.346;-6.296;2023-05-09T06:23:13;100938.88;;;11.24;95.99
64362;BME280;50685;53.346;-6.296;2023-05-09T06:25:42;100972.31;;;11.39;96.08
64362;BME280;50685;53.346;-6.296;2023-05-09T06:28:15;100972.13;;;11.51;96.04
64362;BME280;50685;53.346;-6.296;2023-05-09T06:30:40;101011.69;;;11.73;95.79
64362;BME280;50685;53.346;-6.296;2023-05-09T06:33:09;101008.94;;;11.79;95.50
64362;BME280;50685;53.346;-6.296;2023-05-09T06:36:06;100970.09;;;11.70;96.04
64362;BME280;50685;53.346;-6.296;2023-05-09T07:32:38;100978.56;;;13.84;80.02
64362;BME280;50685;53.346;-6.296;2023-05-09T07:43:06;100941.25;;;14.20;77.98
64362;BME280;50685;53.346;-6.296;2023-05-09T07:45:53;100949.53;;;14.43;76.69
64362;BME280;50685;53.346;-6.296;2023-05-09T07:54:43;100941.72;;;15.02;76.33
64362;BME280;50685;53.346;-6.296;2023-05-09T07:57:15;100950.38;;;15.10;74.29
64362;BME280;50685;53.346;-6.296;2023-05-09T07:59:46;100935.75;;;14.92;74.53
64362;BME280;50685;53.346;-6.296;2023-05-09T08:02:11;100959.66;;;14.97;74.52
64362;BME280;50685;53.346;-6.296;2023-05-09T08:16:50;100983.19;;;15.15;73.35
64362;BME280;50685;53.346;-6.296;2023-05-09T08:29:49;100931.91;;;15.34;70.02
64362;BME280;50685;53.346;-6.296;2023-05-09T08:38:47;100979.03;;;15.36;70.05
64362;BME280;50685;53.346;-6.296;2023-05-09T08:41:23;100959.44;;;15.36;68.67
64362;BME280;50685;53.346;-6.296;2023-05-09T08:43:51;100940.25;;;15.21;69.55
64362;BME280;50685;53.346;-6.296;2023-05-09T08:47:01;100940.72;;;15.36;70.47
64362;BME280;50685;53.346;-6.296;2023-05-09T08:49:34;100942.41;;;15.40;69.25
64362;BME280;50685;53.346;-6.296;2023-05-09T08:55:41;100967.06;;;15.48;69.97
64362;BME280;50685;53.346;-6.296;2023-05-09T08:58:43;100966.84;;;15.56;70.12
64362;BME280;50685;53.346;-6.296;2023-05-09T09:05:09;100910.84;;;15.51;67.56
64362;BME280;50685;53.346;-6.296;2023-05-09T09:10:40;100944.00;;;16.02;67.07
64362;BME280;50685;53.346;-6.296;2023-05-09T09:13:16;100890.66;;;15.69;64.99
64362;BME280;50685;53.346;-6.296;2023-05-09T09:15:56;100906.16;;;15.88;65.53
64362;BME280;50685;53.346;-6.296;2023-05-09T09:18:31;100938.00;;;16.48;64.41
64362;BME280;50685;53.346;-6.296;2023-05-09T09:21:14;100887.25;;;16.45;62.79
64362;BME280;50685;53.346;-6.296;2023-05-09T09:23:58;100902.56;;;16.90;63.16
64362;BME280;50685;53.346;-6.296;2023-05-09T09:26:30;100883.38;;;17.02;60.10
64362;BME280;50685;53.346;-6.296;2023-05-09T09:29:19;100910.03;;;17.29;60.88
64362;BME280;50685;53.346;-6.296;2023-05-09T09:31:55;100895.47;;;17.37;59.15
64362;BME280;50685;53.346;-6.296;2023-05-09T09:34:30;100907.56;;;17.69;59.62
64362;BME280;50685;53.346;-6.296;2023-05-09T09:37:08;100873.25;;;18.00;57.71
64362;BME280;50685;53.346;-6.296;2023-05-09T09:39:52;100857.03;;;18.23;57.57
64362;BME280;50685;53.346;-6.296;2023-05-09T09:42:18;100879.13;;;18.70;56.99
64362;BME280;50685;53.346;-6.296;2023-05-09T09:45:29;100871.09;;;18.89;55.42
64362;BME280;50685;53.346;-6.296;2023-05-09T09:48:36;100907.09;;;19.43;50.71
64362;BME280;50685;53.346;-6.296;2023-05-09T09:51:10;100906.03;;;19.84;51.21
64362;BME280;50685;53.346;-6.296;2023-05-09T09:53:43;100843.28;;;19.84;49.92
64362;BME280;50685;53.346;-6.296;2023-05-09T09:56:12;100872.63;;;19.88;49.62
64362;BME280;50685;53.346;-6.296;2023-05-09T09:58:37;100860.47;;;19.99;50.36
64362;BME280;50685;53.346;-6.296;2023-05-09T10:01:11;100863.47;;;19.93;47.74
64362;BME280;50685;53.346;-6.296;2023-05-09T10:03:44;100883.66;;;19.84;48.54
64362;BME280;50685;53.346;-6.296;2023-05-09T10:06:11;100875.59;;;20.01;48.53
64362;BME280;50685;53.346;-6.296;2023-05-09T10:08:37;100849.94;;;19.57;46.65
64362;BME280;50685;53.346;-6.296;2023-05-09T10:11:03;100837.38;;;19.39;46.76
64362;BME280;50685;53.346;-6.296;2023-05-09T10:13:29;100869.56;;;19.59;48.09
64362;BME280;50685;53.346;-6.296;2023-05-09T10:15:56;100861.50;;;19.77;48.54
64362;BME280;50685;53.346;-6.296;2023-05-09T10:18:27;100848.25;;;19.92;47.54
64362;BME280;50685;53.346;-6.296;2023-05-09T10:20:53;100884.19;;;19.90;49.60
64362;BME280;50685;53.346;-6.296;2023-05-09T10:23:22;100844.69;;;19.18;47.94
64362;BME280;50685;53.346;-6.296;2023-05-09T10:25:56;100860.63;;;18.83;48.91
64362;BME280;50685;53.346;-6.296;2023-05-09T10:28:27;100880.88;;;18.71;50.38
64362;BME280;50685;53.346;-6.296;2023-05-09T10:33:38;100880.31;;;18.83;49.31
64362;BME280;50685;53.346;-6.296;2023-05-09T10:36:06;100863.78;;;18.92;49.60
64362;BME280;50685;53.346;-6.296;2023-05-09T10:38:33;100882.53;;;19.13;49.03
64362;BME280;50685;53.346;-6.296;2023-05-09T10:40:59;100881.97;;;19.25;49.03
64362;BME280;50685;53.346;-6.296;2023-05-09T10:43:26;100856.44;;;19.34;48.99
64362;BME280;50685;53.346;-6.296;2023-05-09T10:45:54;100902.41;;;20.20;47.33
64362;BME280;50685;53.346;-6.296;2023-05-09T10:48:20;100884.84;;;19.96;46.76
64362;BME280;50685;53.346;-6.296;2023-05-09T10:50:47;100865.81;;;19.81;47.72
64362;BME280;50685;53.346;-6.296;2023-05-09T10:53:13;100861.50;;;19.96;47.36
64362;BME280;50685;53.346;-6.296;2023-05-09T10:55:58;100879.22;;;20.00;46.36
64362;BME280;50685;53.346;-6.296;2023-05-09T11:01:05;100889.38;;;19.76;46.73
64362;BME280;50685;53.346;-6.296;2023-05-09T11:03:55;100856.91;;;19.62;46.02
64362;BME280;50685;53.346;-6.296;2023-05-09T11:09:36;100804.13;;;19.59;44.52
64362;BME280;50685;53.346;-6.296;2023-05-09T11:12:06;100871.63;;;20.26;42.76
64362;BME280;50685;53.346;-6.296;2023-05-09T11:17:07;100843.75;;;20.61;41.95
64362;BME280;50685;53.346;-6.296;2023-05-09T11:25:24;100809.59;;;20.61;40.43
64362;BME280;50685;53.346;-6.296;2023-05-09T11:28:07;100803.56;;;20.74;40.52
64362;BME280;50685;53.346;-6.296;2023-05-09T11:44:17;100849.63;;;22.42;37.92
64362;BME280;50685;53.346;-6.296;2023-05-09T11:46:44;100817.09;;;22.58;39.48
64362;BME280;50685;53.346;-6.296;2023-05-09T11:49:10;100820.28;;;22.65;38.84
64362;BME280;50685;53.346;-6.296;2023-05-09T11:51:38;100837.75;;;22.88;39.69
64362;BME280;50685;53.346;-6.296;2023-05-09T11:54:10;100793.78;;;22.99;39.56
64362;BME280;50685;53.346;-6.296;2023-05-09T11:56:39;100815.69;;;23.08;38.99
64362;BME280;50685;53.346;-6.296;2023-05-09T11:59:10;100845.41;;;22.81;43.07
64362;BME280;50685;53.346;-6.296;2023-05-09T12:01:37;100819.06;;;22.25;45.14
64362;BME280;50685;53.346;-6.296;2023-05-09T12:04:05;100821.94;;;21.77;45.26
64362;BME280;50685;53.346;-6.296;2023-05-09T12:06:31;100812.00;;;21.31;46.58
64362;BME280;50685;53.346;-6.296;2023-05-09T12:09:02;100813.75;;;20.67;48.00
64362;BME280;50685;53.346;-6.296;2023-05-09T12:11:30;100841.72;;;20.48;48.47
64362;BME280;50685;53.346;-6.296;2023-05-09T12:14:01;100812.16;;;19.96;49.55
64362;BME280;50685;53.346;-6.296;2023-05-09T12:16:29;100845.84;;;19.68;50.42
64362;BME280;50685;53.346;-6.296;2023-05-09T12:18:55;100839.94;;;19.42;51.48
64362;BME280;50685;53.346;-6.296;2023-05-09T12:21:21;100797.97;;;19.01;51.51
64362;BME280;50685;53.346;-6.296;2023-05-09T12:23:50;100833.28;;;18.93;52.11
64362;BME280;50685;53.346;-6.296;2023-05-09T12:26:28;100837.31;;;18.83;52.90
64362;BME280;50685;53.346;-6.296;2023-05-09T12:28:58;100813.41;;;18.58;53.00
64362;BME280;50685;53.346;-6.296;2023-05-09T12:31:52;100809.31;;;18.49;52.80
64362;BME280;50685;53.346;-6.296;2023-05-09T12:34:29;100778.03;;;18.08;53.78
64362;BME280;50685;53.346;-6.296;2023-05-09T12:36:58;100846.94;;;18.28;54.19
64362;BME280;50685;53.346;-6.296;2023-05-09T12:39:39;100844.47;;;18.24;54.25
64362;BME280;50685;53.346;-6.296;2023-05-09T13:41:53;100805.69;;;18.10;55.63
64362;BME280;50685;53.346;-6.296;2023-05-09T13:44:22;100832.47;;;18.33;55.70
64362;BME280;50685;53.346;-6.296;2023-05-09T13:50:25;100825.94;;;18.38;55.57
64362;BME280;50685;53.346;-6.296;2023-05-09T14:09:39;100795.69;;;18.14;56.33
64362;BME280;50685;53.346;-6.296;2023-05-09T14:12:31;100825.00;;;18.19;56.05
64362;BME280;50685;53.346;-6.296;2023-05-09T14:14:56;100801.84;;;18.37;56.17
64362;BME280;50685;53.346;-6.296;2023-05-09T14:17:28;100784.66;;;18.60;54.96
64362;BME280;50685;53.346;-6.296;2023-05-09T14:20:32;100761.72;;;18.53;54.85
64362;BME280;50685;53.346;-6.296;2023-05-09T14:23:25;100772.03;;;18.22;55.32
64362;BME280;50685;53.346;-6.296;2023-05-09T14:25:52;100820.44;;;18.41;55.53
64362;BME280;50685;53.346;-6.296;2023-05-09T14:28:20;100783.50;;;18.07;55.45
64362;BME280;50685;53.346;-6.296;2023-05-09T14:33:51;100837.47;;;17.99;50.53
64362;BME280;50685;53.346;-6.296;2023-05-09T14:36:27;100808.97;;;17.31;50.48
64362;BME280;50685;53.346;-6.296;2023-05-09T14:39:23;100870.56;;;17.11;53.64
64362;BME280;50685;53.346;-6.296;2023-05-09T14:49:09;100879.41;;;16.13;57.86
64362;BME280;50685;53.346;-6.296;2023-05-09T14:55:21;100870.16;;;16.24;61.10
64362;BME280;50685;53.346;-6.296;2023-05-09T15:15:22;100810.41;;;16.47;65.07
64362;BME280;50685;53.346;-6.296;2023-05-09T15:21:47;100845.50;;;18.01;63.42
64362;BME280;50685;53.346;-6.296;2023-05-09T16:05:41;100818.59;;;18.82;54.05
64362;BME280;50685;53.346;-6.296;2023-05-09T16:11:40;100744.75;;;18.52;53.23
64362;BME280;50685;53.346;-6.296;2023-05-09T16:16:45;100790.19;;;18.17;54.57
64362;BME280;50685;53.346;-6.296;2023-05-09T16:19:33;100748.09;;;17.76;56.59
64362;BME280;50685;53.346;-6.296;2023-05-09T16:22:21;100801.47;;;18.05;55.75
64362;BME280;50685;53.346;-6.296;2023-05-09T16:25:24;100775.47;;;17.64;56.23
64362;BME280;50685;53.346;-6.296;2023-05-09T16:27:53;100782.56;;;17.65;57.17
64362;BME280;50685;53.346;-6.296;2023-05-09T16:30:28;100778.59;;;17.53;57.38
64362;BME280;50685;53.346;-6.296;2023-05-09T16:32:59;100758.69;;;17.16;57.09
64362;BME280;50685;53.346;-6.296;2023-05-09T16:35:26;100796.13;;;17.17;58.69
64362;BME280;50685;53.346;-6.296;2023-05-09T16:37:55;100798.06;;;16.92;59.43
64362;BME280;50685;53.346;-6.296;2023-05-09T16:40:25;100830.81;;;16.26;62.87
64362;BME280;50685;53.346;-6.296;2023-05-09T16:43:09;100877.66;;;15.30;71.17
64362;BME280;50685;53.346;-6.296;2023-05-09T16:45:35;100835.88;;;14.36;76.49
64362;BME280;50685;53.346;-6.296;2023-05-09T16:48:03;100828.28;;;13.88;79.62
64362;BME280;50685;53.346;-6.296;2023-05-09T16:50:34;100852.47;;;13.80;80.07
64362;BME280;50685;53.346;-6.296;2023-05-09T16:53:00;100889.59;;;13.88;79.74
64362;BME280;50685;53.346;-6.296;2023-05-09T16:55:26;100847.47;;;13.66;79.49
64362;BME280;50685;53.346;-6.296;2023-05-09T16:57:52;100860.88;;;13.99;81.58
64362;BME280;50685;53.346;-6.296;2023-05-09T17:00:18;100879.63;;;14.29;79.60
64362;BME280;50685;53.346;-6.296;2023-05-09T17:02:44;100864.53;;;14.29;80.30
64362;BME280;50685;53.346;-6.296;2023-05-09T18:04:09;100824.91;;;16.17;69.04
64362;BME280;50685;53.346;-6.296;2023-05-09T18:07:13;100842.94;;;16.11;65.75
64362;BME280;50685;53.346;-6.296;2023-05-09T18:10:01;100843.66;;;15.90;67.74
64362;BME280;50685;53.346;-6.296;2023-05-09T18:12:39;100853.38;;;15.93;67.22
64362;BME280;50685;53.346;-6.296;2023-05-09T18:15:29;100809.84;;;15.61;64.87
64362;BME280;50685;53.346;-6.296;2023-05-09T18:21:02;100831.09;;;15.66;63.88
64362;BME280;50685;53.346;-6.296;2023-05-09T18:23:39;100863.13;;;15.67;62.70
64362;BME280;50685;53.346;-6.296;2023-05-09T18:26:43;100807.25;;;15.31;62.31
64362;BME280;50685;53.346;-6.296;2023-05-09T18:29:27;100809.69;;;15.10;62.40
64362;BME280;50685;53.346;-6.296;2023-05-09T18:32:18;100874.75;;;15.38;61.71
64362;BME280;50685;53.346;-6.296;2023-05-09T18:35:02;100869.28;;;15.41;61.46
64362;BME280;50685;53.346;-6.296;2023-05-09T18:38:21;100876.31;;;15.45;61.79
64362;BME280;50685;53.346;-6.296;2023-05-09T18:41:34;100873.75;;;15.40;61.49
64362;BME280;50685;53.346;-6.296;2023-05-09T18:44:00;100868.41;;;15.40;62.10
64362;BME280;50685;53.346;-6.296;2023-05-09T18:46:43;100832.72;;;15.15;61.90
64362;BME280;50685;53.346;-6.296;2023-05-09T18:51:51;100883.09;;;15.27;61.93
64362;BME280;50685;53.346;-6.296;2023-05-09T18:58:21;100874.91;;;15.03;61.06
64362;BME280;50685;53.346;-6.296;2023-05-09T19:01:48;100889.91;;;15.07;62.02
64362;BME280;50685;53.346;-6.296;2023-05-09T21:39:48;100921.88;;;12.48;69.45
64362;BME280;50685;53.346;-6.296;2023-05-09T21:45:36;100889.44;;;12.28;69.90
64362;BME280;50685;53.346;-6.296;2023-05-09T21:48:23;100937.84;;;12.48;70.09
64362;BME280;50685;53.346;-6.296;2023-05-09T21:58:53;100868.72;;;11.98;71.00
64362;BME280;50685;53.346;-6.296;2023-05-09T22:19:05;100902.75;;;12.28;71.64
64362;BME280;50685;53.346;-6.296;2023-05-09T22:42:03;100852.00;;;11.90;74.03
64362;BME280;50685;53.346;-6.296;2023-05-09T22:44:36;100917.94;;;12.21;74.31
